Time;durP1;ratioP1;P1;durP2;ratioP2;P2;SDS_P1;SDS_P2;PMS_P1;PMS_P2;Temp;Humidity;BMP_temperature;BMP_pressure;BME280_temperature;BME280_humidity;BME280_pressure;Samples;Min_cycle;Max_cycle;Signal;HPM_P1;HPM_P2
2023/09/28 00:01:03;;;;;;;19.20;13.40;;;;;;;12.54;79.51;100645.36;133448;1300;22214;-72
2023/09/28 00:04:06;;;;;;;20.30;12.50;;;;;;;12.46;79.89;100647.08;133422;1300;22388;-72
2023/09/28 00:07:12;;;;;;;;;;;;;;;12.44;79.55;100648.52;133468;1300;22442;-73
2023/09/28 00:10:15;;;;;;;16.10;13.10;;;;;;;12.41;79.23;100644.81;133433;1307;22421;-73
2023/09/28 00:13:37;;;;;;;;;;;;;;;;;;;;;
2023/09/28 00:17:00;;;;;;;;;;;;;;;;;;;;;
2023/09/28 00:20:17;;;;;;;19.10;13.90;;;;;;;12.36;80.04;100641.95;133399;1300;22408;-72
2023/09/28 00:23:21;;;;;;;25.40;15.50;;;;;;;12.34;80.58;100639.65;133225;1300;22283;-72
2023/09/28 00:26:33;;;;;;;19.70;15.50;;;;;;;12.31;80.70;100638.09;133436;1303;22274;-72
2023/09/28 00:29:44;;;;;;;18.80;14.50;;;;;;;12.26;80.94;100638.39;133441;1300;22383;-72
2023/09/28 00:32:52;;;;;;;23.20;15.30;;;;;;;12.24;81.26;100637.59;133460;1300;24202;-73
2023/09/28 00:35:53;;;;;;;23.00;15.20;;;;;;;12.25;81.69;100634.43;133410;1301;22601;-72
2023/09/28 00:39:08;;;;;;;23.60;14.60;;;;;;;12.27;82.12;100629.98;133381;1301;22680;-74
2023/09/28 00:42:09;;;;;;;23.20;16.00;;;;;;;12.29;82.08;100627.41;133393;1306;23169;-73
2023/09/28 00:45:48;;;;;;;20.30;15.60;;;;;;;12.31;82.59;100627.38;133491;1300;22360;-72
2023/09/28 00:49:24;;;;;;;22.70;16.30;;;;;;;12.33;82.77;100623.82;133358;1302;23062;-72
2023/09/28 00:53:14;;;;;;;;;;;;;;;;;;;;;
2023/09/28 00:56:32;;;;;;;17.50;12.90;;;;;;;12.34;82.25;100625.29;133578;1300;22362;-75
2023/09/28 00:59:38;;;;;;;13.90;12.00;;;;;;;12.31;82.20;100623.86;133564;1301;23300;-75
2023/09/28 01:02:42;;;;;;;17.70;12.40;;;;;;;12.29;81.94;100623.19;133526;1301;22369;-76
2023/09/28 01:05:51;;;;;;;15.90;11.50;;;;;;;12.27;81.83;100625.30;133493;1300;22485;-76
2023/09/28 01:09:06;;;;;;;19.10;13.40;;;;;;;12.24;81.40;100624.45;133348;1301;22490;-75
2023/09/28 01:12:39;;;;;;;;;;;;;;;;;;;;;
2023/09/28 01:16:06;;;;;;;13.30;11.40;;;;;;;12.12;81.21;100627.70;133487;1301;22229;-75
2023/09/28 01:19:11;;;;;;;14.10;11.50;;;;;;;12.08;81.11;100626.33;133490;1301;22454;-77
2023/09/28 01:22:42;;;;;;;19.50;14.10;;;;;;;12.06;81.39;100626.21;133330;1301;22402;-75
2023/09/28 01:25:48;;;;;;;29.50;17.40;;;;;;;12.06;82.09;100625.53;133474;1300;22439;-76
2023/09/28 01:28:59;;;;;;;23.40;16.10;;;;;;;12.05;82.48;100625.23;133495;1301;22472;-76
2023/09/28 01:32:54;;;;;;;;;;;;;;;;;;;;;
2023/09/28 01:35:55;;;;;;;14.30;12.60;;;;;;;11.98;82.26;100628.70;133221;1301;23268;-76
2023/09/28 01:39:23;;;;;;;;;;;;;;;;;;;;;
2023/09/28 01:43:09;;;;;;;15.50;11.40;;;;;;;11.84;81.43;100630.29;133547;1304;22249;-76
2023/09/28 01:46:13;;;;;;;16.00;11.50;;;;;;;11.77;81.30;100625.50;133506;1301;22430;-76
2023/09/28 01:49:40;;;;;;;14.70;10.60;;;;;;;11.72;81.09;100624.29;133384;1301;22495;-76
2023/09/28 01:52:46;;;;;;;16.00;11.80;;;;;;;11.65;81.11;100624.84;133391;1303;22441;-76
2023/09/28 01:55:53;;;;;;;14.10;10.90;;;;;;;11.59;81.31;100624.70;133557;1303;22493;-76
2023/09/28 01:59:03;;;;;;;17.40;14.10;;;;;;;11.58;81.44;100629.99;133545;1303;22568;-76
2023/09/28 02:02:11;;;;;;;15.50;11.90;;;;;;;11.54;81.49;100622.93;133519;1301;22471;-76
2023/09/28 02:05:44;;;;;;;;;;;;;;;;;;;;;
2023/09/28 02:10:00;;;;;;;19.10;12.60;;;;;;;11.47;81.51;100613.44;133439;1301;22733;-76
2023/09/28 02:12:56;;;;;;;19.90;11.50;;;;;;;11.38;81.45;100616.95;133392;1301;23239;-76
2023/09/28 02:16:03;;;;;;;14.20;11.30;;;;;;;11.32;81.26;100614.80;133540;1303;22458;-75
2023/09/28 02:19:15;;;;;;;16.50;11.80;;;;;;;11.27;81.26;100611.96;133417;1301;22600;-76
2023/09/28 02:22:29;;;;;;;13.80;10.50;;;;;;;11.26;81.44;100611.62;133528;1303;22401;-76
2023/09/28 02:25:42;;;;;;;16.10;10.80;;;;;;;11.21;81.40;100614.20;133549;1301;23068;-75
2023/09/28 02:29:03;;;;;;;13.80;11.00;;;;;;;11.16;81.16;100612.91;133559;1301;22407;-76
2023/09/28 02:32:13;;;;;;;20.20;11.90;;;;;;;11.11;81.24;100615.87;133558;1303;22361;-75
2023/09/28 02:35:27;;;;;;;;;;;;;;;;;;;;;
2023/09/28 02:38:32;;;;;;;12.50;10.80;;;;;;;11.06;81.22;100625.11;133562;1302;22535;-76
2023/09/28 02:41:35;;;;;;;17.80;10.80;;;;;;;11.01;81.22;100621.89;133571;1300;22481;-76
2023/09/28 02:45:17;;;;;;;15.30;10.50;;;;;;;10.98;81.14;100621.14;133390;1303;22429;-75
2023/09/28 02:48:27;;;;;;;11.20;9.60;;;;;;;10.93;81.05;100619.05;133518;1301;22411;-77
2023/09/28 02:51:33;;;;;;;21.00;13.40;;;;;;;10.90;81.37;100619.84;133550;1301;22403;-77
2023/09/28 02:54:43;;;;;;;18.90;12.90;;;;;;;10.90;81.48;100623.71;133590;1302;22918;-76
2023/09/28 02:58:16;;;;;;;19.50;13.80;;;;;;;10.88;81.44;100622.05;133574;1300;23090;-76
2023/09/28 03:01:53;;;;;;;12.70;10.00;;;;;;;10.85;81.41;100622.71;133518;1303;22468;-76
2023/09/28 03:05:49;;;;;;;13.50;11.10;;;;;;;10.81;81.28;100623.45;133564;1301;22483;-76
2023/09/28 03:12:17;;;;;;;18.00;13.30;;;;;;;10.78;81.30;100625.14;133445;1304;22366;-76
2023/09/28 03:15:30;;;;;;;13.40;11.50;;;;;;;10.77;81.28;100626.68;133624;1301;22381;-77
2023/09/28 03:19:16;;;;;;;16.50;13.50;;;;;;;10.71;81.37;100625.78;133580;1303;23360;-76
2023/09/28 03:22:22;;;;;;;12.50;8.70;;;;;;;10.68;81.60;100622.41;133420;1301;23393;-76
2023/09/28 03:25:50;;;;;;;14.00;12.40;;;;;;;10.66;81.90;100621.89;133583;1300;22395;-75
2023/09/28 03:29:28;;;;;;;40.80;13.90;;;;;;;10.66;82.43;100618.61;133557;1308;22233;-76
2023/09/28 03:33:02;;;;;;;;;;;;;;;;;;;;;
2023/09/28 03:37:29;;;;;;;11.50;10.30;;;;;;;10.55;82.63;100620.70;133449;1308;22089;-76
2023/09/28 03:40:38;;;;;;;18.70;14.10;;;;;;;10.51;82.47;100624.47;133459;1300;23067;-76
2023/09/28 03:43:45;;;;;;;19.00;12.90;;;;;;;10.45;82.16;100624.59;133551;1303;22362;-76
2023/09/28 03:46:46;;;;;;;317.50;17.40;;;;;;;10.39;82.52;100623.58;133573;1304;22397;-76
2023/09/28 03:50:01;;;;;;;162.40;17.70;;;;;;;10.29;83.21;100621.67;133611;1300;22386;-75
2023/09/28 03:53:46;;;;;;;47.50;15.00;;;;;;;10.22;83.57;100621.15;133509;1301;23085;-75
2023/09/28 03:56:56;;;;;;;;;;;;;;;10.19;84.08;100618.83;133548;1301;22840;-76
2023/09/28 04:00:21;;;;;;;26.80;17.30;;;;;;;10.17;84.73;100617.62;133531;1300;22316;-75
2023/09/28 04:03:49;;;;;;;21.60;16.30;;;;;;;10.20;85.37;100617.09;133517;1301;22406;-75
2023/09/28 04:07:00;;;;;;;20.60;16.70;;;;;;;10.22;85.72;100615.11;133555;1300;22453;-75
2023/09/28 04:10:11;;;;;;;21.80;17.20;;;;;;;10.25;85.87;100613.31;133520;1301;22364;-76
2023/09/28 04:13:27;;;;;;;;;;;;;;;;;;;;;
2023/09/28 04:17:19;;;;;;;;;;;;;;;;;;;;;
2023/09/28 04:20:31;;;;;;;23.10;15.20;;;;;;;10.10;84.28;100607.48;133573;1301;22395;-76
2023/09/28 04:23:55;;;;;;;25.90;18.90;;;;;;;10.11;84.97;100606.57;133322;1301;22392;-75
2023/09/28 04:27:41;;;;;;;23.50;19.30;;;;;;;10.15;85.61;100606.48;133533;1307;22275;-76
2023/09/28 04:31:08;;;;;;;31.70;21.80;;;;;;;10.18;86.73;100600.89;133554;1301;22282;-75
2023/09/28 04:42:24;;;;;;;34.80;25.60;;;;;;;10.49;89.08;100596.92;133473;1301;22313;-74
2023/09/28 04:46:00;;;;;;;;;;;;;;;;;;;;;
2023/09/28 04:49:27;;;;;;;41.00;28.60;;;;;;;10.70;89.93;100601.66;133361;1303;23661;-76
2023/09/28 04:52:28;;;;;;;36.10;27.10;;;;;;;10.79;90.13;100601.73;133642;1303;22408;-73
2023/09/28 04:55:41;;;;;;;39.60;28.50;;;;;;;10.84;89.87;100602.23;133548;1297;22451;-74
2023/09/28 05:02:46;;;;;;;28.80;21.20;;;;;;;10.93;89.35;100606.62;133334;1301;22363;-75
2023/09/28 05:06:08;;;;;;;;;;;;;;;;;;;;;
2023/09/28 05:09:35;;;;;;;27.20;19.90;;;;;;;10.84;87.71;100606.52;133544;1301;23652;-75
2023/09/28 05:13:04;;;;;;;22.60;16.70;;;;;;;10.84;87.98;100609.83;133535;1300;22426;-75
2023/09/28 05:16:12;;;;;;;24.50;18.40;;;;;;;10.86;87.34;100611.19;133496;1303;22476;-76
2023/09/28 05:19:41;;;;;;;226.00;17.90;;;;;;;10.88;86.89;100612.23;133517;1304;22549;-74
2023/09/28 05:22:52;;;;;;;120.40;19.20;;;;;;;10.96;87.24;100610.54;133494;1301;22399;-76
2023/09/28 05:26:09;;;;;;;30.40;20.70;;;;;;;11.00;87.20;100608.55;133584;1303;22399;-76
2023/09/28 05:29:13;;;;;;;28.20;18.30;;;;;;;11.31;87.91;100610.12;133554;1300;22455;-75
2023/09/28 05:32:20;;;;;;;30.80;21.00;;;;;;;11.76;87.77;100611.25;133306;1300;22445;-75
2023/09/28 05:35:37;;;;;;;32.10;19.90;;;;;;;12.21;87.27;100612.70;133407;1301;22216;-77
2023/09/28 05:38:41;;;;;;;26.70;17.40;;;;;;;12.63;86.61;100614.77;133584;1301;22365;-75
2023/09/28 05:42:03;;;;;;;;;;;;;;;;;;;;;
2023/09/28 05:45:13;;;;;;;21.30;15.70;;;;;;;13.53;85.30;100617.57;133583;1301;23490;-75
2023/09/28 05:48:28;;;;;;;17.10;14.30;;;;;;;13.97;84.49;100614.21;133556;1301;23224;-76
2023/09/28 05:51:29;;;;;;;17.50;15.30;;;;;;;14.37;83.73;100613.67;133576;1293;22368;-75
2023/09/28 05:54:32;;;;;;;20.10;14.40;;;;;;;14.80;83.13;100614.02;133577;1302;23164;-72
2023/09/28 05:57:33;;;;;;;19.50;15.60;;;;;;;15.19;82.89;100613.44;133583;1301;22425;-73
2023/09/28 06:00:37;;;;;;;18.40;14.70;;;;;;;15.66;82.61;100611.33;133546;1300;22204;-73
2023/09/28 06:03:38;;;;;;;19.00;15.00;;;;;;;16.10;82.13;100613.58;133611;1303;22259;-73
2023/09/28 06:06:44;;;;;;;21.20;16.10;;;;;;;16.52;81.41;100613.13;133574;1303;22947;-73
2023/09/28 06:09:53;;;;;;;26.20;16.50;;;;;;;17.00;80.84;100612.77;133556;1302;22479;-74
2023/09/28 06:12:57;;;;;;;28.20;17.90;;;;;;;17.41;80.33;100615.30;133376;1303;22404;-74
2023/09/28 06:15:58;;;;;;;37.10;21.80;;;;;;;17.80;79.51;100615.59;133435;1301;22338;-75
2023/09/28 06:19:07;;;;;;;24.80;18.90;;;;;;;18.19;79.05;100610.90;133566;1301;22391;-76
2023/09/28 06:22:10;;;;;;;29.30;19.10;;;;;;;18.72;78.68;100609.34;133524;1300;23136;-74
2023/09/28 06:25:11;;;;;;;21.10;16.90;;;;;;;19.20;77.71;100605.63;133536;1300;22445;-75
2023/09/28 06:28:18;;;;;;;23.00;17.40;;;;;;;19.56;76.69;100612.27;133579;1301;22351;-75
2023/09/28 06:31:25;;;;;;;24.80;16.30;;;;;;;19.96;76.19;100613.60;133594;1305;22455;-75
2023/09/28 06:34:26;;;;;;;21.40;15.00;;;;;;;20.55;75.65;100610.20;133563;1299;22229;-75
2023/09/28 06:37:32;;;;;;;18.30;14.90;;;;;;;21.06;74.55;100611.61;133561;1308;22249;-75
2023/09/28 06:40:41;;;;;;;23.40;15.80;;;;;;;21.51;73.02;100614.28;133547;1303;22432;-81
2023/09/28 06:44:25;;;;;;;17.80;15.70;;;;;;;21.75;71.94;100615.92;133370;1301;22890;-76
2023/09/28 06:48:01;;;;;;;;;;;;;;;;;;;;;
2023/09/28 06:51:22;;;;;;;17.80;13.30;;;;;;;22.29;69.64;100611.96;133595;1304;22537;-77
2023/09/28 06:55:26;;;;;;;;;;;;;;;;;;;;;
2023/09/28 06:59:12;;;;;;;24.00;11.90;;;;;;;22.54;66.38;100618.67;133322;1303;22873;-77
2023/09/28 07:02:26;;;;;;;19.90;12.10;;;;;;;22.55;66.36;100620.61;133372;1301;22400;-76
2023/09/28 07:06:02;;;;;;;17.80;12.70;;;;;;;22.60;65.65;100623.05;133410;1300;22436;-77
2023/09/28 07:09:15;;;;;;;17.80;12.00;;;;;;;22.88;65.60;100625.30;133403;1301;22271;-80
2023/09/28 07:12:22;;;;;;;15.00;11.50;;;;;;;23.29;65.25;100625.13;133458;1303;22388;-80
2023/09/28 07:15:56;;;;;;;16.80;11.40;;;;;;;23.59;64.19;100624.27;133410;1301;22876;-81
2023/09/28 07:19:50;;;;;;;;;;;;;;;;;;;;;
2023/09/28 07:23:41;;;;;;;16.10;10.30;;;;;;;24.02;61.65;100627.08;133485;1300;23329;-81
2023/09/28 07:27:32;;;;;;;15.10;10.50;;;;;;;24.03;61.11;100631.59;133495;1301;22454;-80
2023/09/28 07:31:21;;;;;;;17.80;10.30;;;;;;;24.33;61.03;100634.44;133563;1300;22402;-80
2023/09/28 07:34:28;;;;;;;13.90;10.20;;;;;;;24.59;59.60;100636.58;133299;1301;22399;-81
2023/09/28 07:38:20;;;;;;;15.00;9.10;;;;;;;24.53;58.49;100632.73;133501;1300;22541;-81
2023/09/28 07:42:17;;;;;;;;;;;;;;;;;;;;;
2023/09/28 07:49:34;;;;;;;16.30;9.20;;;;;;;23.59;56.04;100630.45;133428;1301;22194;-80
2023/09/28 07:52:58;;;;;;;;;;;;;;;;;;;;;
2023/09/28 07:56:20;;;;;;;15.10;9.40;;;;;;;23.47;56.67;100640.48;133416;1307;22510;-80
2023/09/28 07:59:33;;;;;;;15.00;8.70;;;;;;;23.56;56.14;100639.55;133324;1303;22237;-80
2023/09/28 08:02:52;;;;;;;;;;;;;;;;;;;;;
2023/09/28 08:06:32;;;;;;;15.20;8.90;;;;;;;23.97;55.63;100640.99;133441;1301;22498;-80
2023/09/28 08:10:49;;;;;;;13.50;8.10;;;;;;;23.96;54.56;100640.14;133557;1300;22437;-81
2023/09/28 08:13:42;;;;;;;13.00;7.60;;;;;;;23.83;54.78;100640.59;133265;1302;22445;-80
2023/09/28 08:16:57;;;;;;;;;;;;;;;;;;;;;
2023/09/28 08:20:26;;;;;;;;;;;;;;;;;;;;;
2023/09/28 08:25:01;;;;;;;14.60;8.40;;;;;;;24.46;54.46;100644.76;133346;1300;22454;-81
2023/09/28 08:32:30;;;;;;;;;;;;;;;;;;;;;
2023/09/28 08:35:57;;;;;;;11.90;7.70;;;;;;;24.87;52.42;100640.92;133393;1301;22403;-81
2023/09/28 08:39:12;;;;;;;20.20;7.80;;;;;;;25.05;51.40;100636.66;133449;1307;22208;-80
2023/09/28 08:43:09;;;;;;;;;;;;;;;;;;;;;
2023/09/28 08:47:23;;;;;;;11.70;7.00;;;;;;;25.86;51.34;100643.21;133285;1302;22244;-79
2023/09/28 08:50:49;;;;;;;14.70;7.50;;;;;;;26.00;50.28;100641.63;133279;1303;22397;-80
2023/09/28 08:54:02;;;;;;;12.30;7.30;;;;;;;26.29;50.30;100641.34;133460;1301;22410;-80
2023/09/28 08:57:15;;;;;;;11.80;7.30;;;;;;;26.51;49.73;100638.44;133305;1301;22478;-80
2023/09/28 09:00:40;;;;;;;10.60;7.30;;;;;;;26.67;49.06;100638.86;133498;1301;23524;-81
2023/09/28 09:03:44;;;;;;;13.70;6.70;;;;;;;26.86;48.88;100636.86;133403;1301;23161;-82
2023/09/28 09:10:20;;;;;;;10.00;6.50;;;;;;;27.65;47.61;100633.18;133391;1302;22260;-81
2023/09/28 09:13:28;;;;;;;12.40;6.90;;;;;;;27.97;47.67;100634.33;133397;1304;22393;-81
2023/09/28 09:16:32;;;;;;;11.80;6.60;;;;;;;28.12;46.57;100634.14;133385;1301;22386;-81
2023/09/28 09:19:56;;;;;;;12.60;6.00;;;;;;;28.19;46.63;100632.90;133448;1301;22478;-82
2023/09/28 09:23:17;;;;;;;10.90;6.10;;;;;;;28.31;45.19;100631.97;133286;1307;22489;-81
2023/09/28 09:26:45;;;;;;;12.60;6.80;;;;;;;28.30;44.37;100631.91;133484;1301;22512;-81
2023/09/28 09:30:15;;;;;;;9.90;5.80;;;;;;;28.14;44.16;100629.83;133308;1305;22791;-82
2023/09/28 09:33:16;;;;;;;10.10;5.70;;;;;;;28.28;44.23;100625.91;133425;1302;22483;-82
2023/09/28 09:36:52;;;;;;;;;;;;;;;;;;;;;
2023/09/28 09:44:03;;;;;;;;;;;;;;;28.90;43.28;100622.77;133374;1301;23395;-82
2023/09/28 09:47:15;;;;;;;9.90;6.10;;;;;;;29.07;42.98;100625.64;133302;1301;22484;-81
2023/09/28 09:51:17;;;;;;;6.80;5.30;;;;;;;29.16;42.89;100623.81;133323;1302;23160;-82
2023/09/28 09:54:11;;;;;;;10.60;5.40;;;;;;;29.35;42.88;100621.73;133381;1303;23456;-82
2023/09/28 09:57:27;;;;;;;12.10;5.10;;;;;;;29.48;41.69;100619.91;133255;1306;22245;-82
2023/09/28 10:00:31;;;;;;;8.00;5.50;;;;;;;29.46;41.25;100620.41;133435;1304;22384;-82
2023/09/28 10:04:13;;;;;;;9.80;5.70;;;;;;;29.57;41.76;100621.02;133421;1304;23467;-82
2023/09/28 10:07:30;;;;;;;;;;;;;;;;;;;;;
2023/09/28 10:10:33;;;;;;;9.60;5.00;;;;;;;29.87;40.04;100617.31;133421;1301;22451;-82
2023/09/28 10:14:38;;;;;;;11.10;5.80;;;;;;;29.63;39.34;100612.91;133423;1301;22452;-81
2023/09/28 10:18:09;;;;;;;12.70;5.70;;;;;;;29.52;39.84;100612.23;133107;1301;22998;-83
2023/09/28 10:21:13;;;;;;;10.00;4.90;;;;;;;29.59;39.73;100610.36;133393;1300;22241;-81
2023/09/28 10:24:17;;;;;;;12.30;5.00;;;;;;;29.81;39.40;100611.00;133305;1303;22418;-83
2023/09/28 10:27:25;;;;;;;9.10;5.00;;;;;;;29.96;38.92;100608.45;133472;1301;22656;-82
2023/09/28 10:30:37;;;;;;;9.20;4.70;;;;;;;30.08;37.61;100609.35;133420;1303;22491;-82
2023/09/28 10:34:37;;;;;;;7.10;4.90;;;;;;;29.70;35.76;100609.64;133458;1301;22294;-82
2023/09/28 10:38:22;;;;;;;12.10;4.60;;;;;;;29.21;35.28;100605.92;133313;1307;22515;-82
2023/09/28 10:41:53;;;;;;;11.90;4.60;;;;;;;28.87;35.55;100595.03;133080;1302;22501;-81
2023/09/28 10:45:02;;;;;;;8.50;4.30;;;;;;;28.77;34.89;100588.39;133289;1303;22365;-81
2023/09/28 10:48:29;;;;;;;15.20;5.30;;;;;;;28.57;35.17;100587.89;133360;1301;23321;-81
2023/09/28 10:52:10;;;;;;;9.30;4.50;;;;;;;28.57;34.94;100587.95;133145;1307;22503;-83
2023/09/28 10:55:20;;;;;;;6.60;4.40;;;;;;;28.50;35.02;100582.60;133453;1303;23186;-81
2023/09/28 10:59:02;;;;;;;9.40;4.20;;;;;;;28.47;34.71;100580.41;133320;1307;23592;-82
2023/09/28 11:07:18;;;;;;;7.30;4.20;;;;;;;28.52;34.96;100571.58;133318;1301;22282;-80
2023/09/28 11:10:38;;;;;;;;;;;;;;;;;;;;;
2023/09/28 11:14:10;;;;;;;8.50;4.50;;;;;;;28.63;34.66;100572.80;133387;1300;22365;-81
2023/09/28 11:17:25;;;;;;;;;;;;;;;;;;;;;
2023/09/28 11:20:52;;;;;;;8.00;4.30;;;;;;;28.89;34.67;100572.73;133449;1303;22443;-81
2023/09/28 11:25:32;;;;;;;10.20;4.40;;;;;;;28.64;33.83;100571.70;133453;1303;23216;-79
2023/09/28 11:28:16;;;;;;;6.70;4.50;;;;;;;28.41;34.72;100567.63;133036;1301;22196;-79
2023/09/28 11:31:35;;;;;;;18.40;4.60;;;;;;;28.48;35.26;100566.23;133323;1304;22500;-81
2023/09/28 11:35:04;;;;;;;11.70;4.10;;;;;;;28.75;35.17;100561.43;133377;1304;22440;-81
2023/09/28 11:38:55;;;;;;;6.60;4.70;;;;;;;28.78;35.34;100555.52;133319;1301;22374;-80
2023/09/28 11:43:04;;;;;;;15.50;4.70;;;;;;;28.87;35.26;100556.74;133314;1302;22249;-81
2023/09/28 11:46:14;;;;;;;7.10;4.20;;;;;;;28.65;34.48;100555.23;133430;1306;23203;-81
2023/09/28 11:49:40;;;;;;;11.80;4.70;;;;;;;28.53;34.37;100558.58;133363;1303;23103;-81
2023/09/28 11:52:53;;;;;;;6.40;4.30;;;;;;;28.38;34.75;100556.77;133332;1305;22402;-81
2023/09/28 11:55:59;;;;;;;11.40;4.70;;;;;;;28.46;35.27;100551.39;133470;1302;22385;-81
2023/09/28 11:59:57;;;;;;;8.90;4.30;;;;;;;28.51;35.05;100553.55;133486;1303;22381;-82
2023/09/28 12:03:14;;;;;;;6.90;4.30;;;;;;;28.45;34.70;100551.15;133455;1301;22329;-81
2023/09/28 12:06:37;;;;;;;8.50;4.50;;;;;;;28.19;34.29;100549.30;133471;1301;22463;-80
2023/09/28 12:10:20;;;;;;;9.80;4.30;;;;;;;28.04;35.20;100546.75;133457;1303;22365;-80
2023/09/28 12:14:02;;;;;;;;;;;;;;;;;;;;;
2023/09/28 12:17:30;;;;;;;12.70;4.60;;;;;;;28.19;35.42;100545.65;133451;1302;22979;-81
2023/09/28 12:24:58;;;;;;;9.60;4.20;;;;;;;27.88;35.35;100542.70;133127;1302;23223;-80
2023/09/28 12:28:22;;;;;;;9.90;4.10;;;;;;;27.77;35.40;100543.07;133383;1305;22245;-80
2023/09/28 12:31:23;;;;;;;8.80;4.80;;;;;;;27.65;35.32;100547.39;133505;1302;22224;-80
2023/09/28 12:34:29;;;;;;;12.40;3.70;;;;;;;27.57;35.25;100543.06;133508;1306;22473;-81
2023/09/28 12:38:04;;;;;;;11.80;4.20;;;;;;;27.52;35.07;100543.43;133485;1302;22395;-80
2023/09/28 12:41:34;;;;;;;6.50;4.20;;;;;;;27.36;34.95;100542.03;133338;1307;22502;-80
2023/09/28 12:44:40;;;;;;;9.90;4.60;;;;;;;27.22;35.01;100537.52;133493;1303;22461;-79
2023/09/28 12:48:25;;;;;;;21.80;4.50;;;;;;;27.20;35.29;100532.55;133474;1301;22440;-80
2023/09/28 12:51:29;;;;;;;9.30;4.10;;;;;;;27.18;35.66;100531.73;133504;1301;22462;-81
2023/09/28 12:54:30;;;;;;;9.70;4.10;;;;;;;27.25;35.97;100530.39;133430;1302;22424;-80
2023/09/28 12:57:31;;;;;;;10.20;4.30;;;;;;;27.31;35.63;100531.77;133417;1304;22349;-80
2023/09/28 13:00:33;;;;;;;14.50;3.90;;;;;;;27.34;35.76;100532.33;133322;1308;22199;-79
2023/09/28 13:03:34;;;;;;;13.10;4.60;;;;;;;27.38;35.63;100535.16;133445;1301;22202;-80
2023/09/28 13:06:35;;;;;;;7.50;3.90;;;;;;;27.40;35.77;100532.63;133458;1303;22439;-80
2023/09/28 13:09:39;;;;;;;11.10;4.30;;;;;;;27.34;35.29;100531.13;133423;1307;22376;-81
2023/09/28 13:12:46;;;;;;;7.80;3.80;;;;;;;27.25;35.74;100530.23;133431;1300;22466;-80
2023/09/28 13:15:57;;;;;;;11.30;4.40;;;;;;;27.12;35.41;100530.77;133475;1301;22223;-81
2023/09/28 13:18:59;;;;;;;9.10;4.20;;;;;;;27.06;36.15;100527.89;133393;1301;22410;-79
2023/09/28 13:22:08;;;;;;;6.40;3.70;;;;;;;27.14;36.54;100521.27;133458;1303;22262;-80
2023/09/28 13:25:32;;;;;;;6.30;4.20;;;;;;;27.10;36.93;100522.47;133522;1301;22462;-80
2023/09/28 13:28:35;;;;;;;7.50;4.70;;;;;;;27.07;36.55;100516.14;133463;1304;22243;-81
2023/09/28 13:31:37;;;;;;;7.70;4.30;;;;;;;27.06;36.54;100512.59;133505;1304;22404;-80
2023/09/28 13:34:50;;;;;;;11.30;4.70;;;;;;;27.12;37.11;100505.42;133530;1301;23208;-80
2023/09/28 13:38:05;;;;;;;11.30;4.40;;;;;;;27.16;36.96;100504.15;133480;1303;22526;-80
2023/09/28 13:41:39;;;;;;;;;;;;;;;;;;;;;
2023/09/28 13:45:24;;;;;;;;;;;;;;;;;;;;;
2023/09/28 13:49:17;;;;;;;;;;;;;;;;;;;;;
2023/09/28 13:52:41;;;;;;;9.40;4.80;;;;;;;26.66;37.85;100492.05;133290;1302;22432;-80
2023/09/28 13:56:09;;;;;;;15.60;4.90;;;;;;;26.57;38.30;100490.21;133393;1304;22924;-80
2023/09/28 13:59:24;;;;;;;12.80;4.80;;;;;;;26.48;38.53;100489.80;133422;1301;22470;-80
2023/09/28 14:02:28;;;;;;;13.30;5.30;;;;;;;26.38;38.90;100481.10;133462;1297;23185;-80
2023/09/28 14:05:29;;;;;;;7.30;4.60;;;;;;;26.34;39.29;100476.23;133454;1303;23255;-80
2023/09/28 14:08:33;;;;;;;7.30;4.70;;;;;;;26.30;39.64;100478.92;133344;1307;22543;-80
2023/09/28 14:11:49;;;;;;;12.50;5.00;;;;;;;26.28;40.10;100481.25;133355;1303;22475;-80
2023/09/28 14:15:02;;;;;;;14.40;6.00;;;;;;;26.32;40.02;100481.66;133503;1303;23658;-80
2023/09/28 14:18:05;;;;;;;9.60;5.50;;;;;;;26.34;39.88;100473.73;133419;1300;22377;-80
2023/09/28 14:21:32;;;;;;;15.40;5.00;;;;;;;26.31;40.08;100469.70;133494;1302;22393;-80
2023/09/28 14:24:54;;;;;;;8.20;4.70;;;;;;;26.32;40.47;100471.31;133348;1303;22388;-80
2023/09/28 14:28:27;;;;;;;;;;;;;;;;;;;;;
2023/09/28 14:35:48;;;;;;;13.20;4.70;;;;;;;26.27;39.88;100465.85;133398;1301;23165;-80
2023/09/28 14:39:21;;;;;;;15.60;4.70;;;;;;;26.24;39.74;100460.77;133398;1300;22355;-80
2023/09/28 14:43:15;;;;;;;;;;;;;;;;;;;;;
2023/09/28 14:46:32;;;;;;;9.90;4.40;;;;;;;26.15;39.70;100461.59;133274;1305;22516;-80
2023/09/28 14:49:52;;;;;;;11.80;4.50;;;;;;;26.13;39.51;100464.35;133486;1301;23050;-80
2023/09/28 14:53:28;;;;;;;7.20;4.30;;;;;;;26.09;39.41;100464.16;133546;1300;22563;-80
2023/09/28 14:57:05;;;;;;;7.50;4.50;;;;;;;26.06;39.69;100459.02;133415;1301;23094;-83
2023/09/28 15:00:21;;;;;;;11.60;5.00;;;;;;;26.03;39.63;100456.40;133542;1303;22308;-81
2023/09/28 15:03:45;;;;;;;7.80;4.10;;;;;;;25.99;39.87;100455.48;133540;1301;22278;-81
2023/09/28 15:07:22;;;;;;;10.20;4.90;;;;;;;25.93;39.49;100453.98;133456;1300;22424;-81
2023/09/28 15:10:44;;;;;;;9.40;4.40;;;;;;;25.86;39.10;100452.95;133529;1301;22231;-81
2023/09/28 15:13:48;;;;;;;4.90;3.80;;;;;;;25.81;39.16;100452.95;133448;1301;23186;-80
2023/09/28 15:17:15;;;;;;;;;;;;;;;;;;;;;
2023/09/28 15:20:31;;;;;;;8.10;4.70;;;;;;;25.70;39.46;100454.70;133573;1301;22457;-81
2023/09/28 15:23:37;;;;;;;13.20;4.40;;;;;;;25.64;39.57;100456.44;133523;1301;22242;-81
2023/09/28 15:26:38;;;;;;;10.90;4.00;;;;;;;25.59;39.63;100456.45;133518;1301;22448;-84
2023/09/28 15:33:35;;;;;;;9.70;4.40;;;;;;;25.44;40.05;100460.98;133411;1301;22459;-81
2023/09/28 15:36:56;;;;;;;7.90;4.30;;;;;;;25.36;40.31;100459.50;133568;1303;22919;-81
2023/09/28 15:40:27;;;;;;;7.00;4.00;;;;;;;25.28;40.69;100465.27;133415;1303;22244;-81
2023/09/28 15:43:51;;;;;;;7.70;4.50;;;;;;;25.14;41.23;100459.45;133525;1301;23079;-81
2023/09/28 15:47:40;;;;;;;6.20;4.40;;;;;;;25.01;41.58;100457.02;133574;1301;22453;-80
2023/09/28 15:50:55;;;;;;;6.70;4.00;;;;;;;24.83;41.88;100452.53;133589;1302;23287;-81
2023/09/28 15:54:06;;;;;;;8.90;3.90;;;;;;;24.70;41.81;100458.16;133395;1303;22942;-80
2023/09/28 15:57:58;;;;;;;;;;;;;;;;;;;;;
2023/09/28 16:01:19;;;;;;;10.80;4.40;;;;;;;24.41;42.36;100472.84;133412;1305;22492;-81
2023/09/28 16:04:55;;;;;;;9.40;4.20;;;;;;;24.29;42.43;100470.10;133416;1300;22543;-81
2023/09/28 16:09:03;;;;;;;;;;;;;;;;;;;;;
2023/09/28 16:12:36;;;;;;;;;;;;;;;;;;;;;
2023/09/28 16:16:39;;;;;;;12.30;4.50;;;;;;;23.81;43.17;100469.91;133420;1302;22470;-83
2023/09/28 16:20:10;;;;;;;;;;;;;;;;;;;;;
2023/09/28 16:23:37;;;;;;;;;;;;;;;;;;;;;
2023/09/28 16:27:02;;;;;;;;;;;;;;;23.22;44.64;100469.70;133449;1301;22433;-81
2023/09/28 16:35:36;;;;;;;11.00;4.60;;;;;;;22.76;45.95;100474.98;133461;1300;22475;-81
2023/09/28 16:38:22;;;;;;;9.70;4.80;;;;;;;22.48;46.25;100477.03;133163;1301;22991;-75
2023/09/28 16:41:46;;;;;;;10.90;4.80;;;;;;;22.24;46.39;100481.73;133550;1303;22343;-74
2023/09/28 16:44:50;;;;;;;11.90;4.50;;;;;;;22.04;46.72;100486.29;133461;1304;23379;-75
2023/09/28 16:51:21;;;;;;;9.00;5.00;;;;;;;21.70;47.24;100491.57;133389;1304;22495;-75
2023/09/28 16:55:16;;;;;;;9.00;4.40;;;;;;;21.53;47.42;100492.68;133429;1294;22409;-75
2023/09/28 16:58:40;;;;;;;10.00;5.20;;;;;;;21.37;48.02;100502.61;133405;1301;22350;-76
2023/09/28 17:02:24;;;;;;;;;;;;;;;;;;;;;
2023/09/28 17:05:35;;;;;;;14.10;5.40;;;;;;;21.17;48.73;100510.63;133450;1302;22516;-75
2023/09/28 17:08:42;;;;;;;12.70;5.10;;;;;;;20.98;49.09;100515.08;133448;1301;22436;-74
2023/09/28 17:11:43;;;;;;;11.00;5.00;;;;;;;20.81;49.38;100512.42;133535;1301;22359;-75
2023/09/28 17:14:44;;;;;;;9.90;5.80;;;;;;;20.63;49.70;100515.85;133410;1300;22533;-74
2023/09/28 17:17:50;;;;;;;13.20;5.70;;;;;;;20.45;50.15;100516.17;133459;1301;22261;-74
2023/09/28 17:20:51;;;;;;;16.10;6.40;;;;;;;20.23;50.60;100515.13;133442;1301;22505;-74